Time;durP1;ratioP1;P1;durP2;ratioP2;P2;SDS_P1;SDS_P2;PMS_P1;PMS_P2;Temp;Humidity;BMP_temperature;BMP_pressure;BME280_temperature;BME280_humidity;BME280_pressure;Samples;Min_cycle;Max_cycle;Signal;HPM_P1;HPM_P2
2022/04/28 00:01:54;;;;;;;7.93;3.13;;;;;;;16.07;54.85;94922.72;5052029;28;20063;-76
2022/04/28 00:04:32;;;;;;;13.57;3.20;;;;;;;15.96;54.93;94921.97;5033639;28;20025;-76
2022/04/28 00:07:05;;;;;;;15.07;2.72;;;;;;;15.89;55.18;94921.41;5010242;28;20053;-76
2022/04/28 00:09:30;;;;;;;5.05;2.95;;;;;;;15.96;55.07;94926.41;5025608;28;20558;-76
2022/04/28 00:11:55;;;;;;;5.93;2.90;;;;;;;16.03;54.95;94925.09;5051523;28;20090;-76
2022/04/28 00:14:21;;;;;;;4.25;2.63;;;;;;;16.11;54.38;94921.97;5051695;28;20063;-76
2022/04/28 00:16:46;;;;;;;11.48;3.00;;;;;;;16.04;54.37;94924.03;5051471;28;20052;-76
2022/04/28 00:19:12;;;;;;;12.73;3.05;;;;;;;16.09;54.14;94926.66;5025595;28;20136;-75
2022/04/28 00:21:56;;;;;;;11.60;2.67;;;;;;;16.19;53.86;94931.13;5017070;28;20037;-77
2022/04/28 00:24:21;;;;;;;6.28;3.03;;;;;;;16.25;53.68;94930.06;5051418;28;20041;-75
2022/04/28 00:26:46;;;;;;;14.23;3.00;;;;;;;16.32;53.83;94935.06;5051104;28;20044;-76
2022/04/28 00:29:12;;;;;;;9.95;3.65;;;;;;;16.38;54.40;94936.63;5051463;28;20072;-76
2022/04/28 00:31:37;;;;;;;10.18;4.05;;;;;;;16.38;54.64;94934.00;5051462;28;20472;-76
2022/04/28 00:34:03;;;;;;;30.08;12.82;;;;;;;16.39;54.96;94938.97;5033426;28;20040;-76
2022/04/28 00:36:29;;;;;;;29.50;13.82;;;;;;;16.41;54.46;94936.88;5032606;28;20052;-76
2022/04/28 00:38:54;;;;;;;54.03;23.20;;;;;;;16.39;54.82;94938.19;5051209;28;20044;-76
2022/04/28 00:41:20;;;;;;;22.63;10.40;;;;;;;16.37;54.76;94937.66;5051285;28;20045;-76
2022/04/28 00:43:52;;;;;;;19.13;6.40;;;;;;;16.35;54.79;94945.03;5033123;28;20425;-76
2022/04/28 00:46:18;;;;;;;26.17;9.05;;;;;;;16.29;54.81;94946.09;5017259;28;20131;-75
2022/04/28 00:51:29;;;;;;;6.20;3.85;;;;;;;16.17;54.68;94951.59;5050889;28;20071;-75
2022/04/28 00:54:04;;;;;;;13.23;3.40;;;;;;;16.11;54.91;94955.28;5015273;28;20052;-75
2022/04/28 00:56:32;;;;;;;14.05;3.60;;;;;;;16.05;55.07;94962.34;5033534;28;20055;-75
2022/04/28 00:59:02;;;;;;;6.72;3.67;;;;;;;15.99;55.16;94958.16;5050379;28;20045;-75
2022/04/28 01:01:30;;;;;;;14.40;3.53;;;;;;;15.95;55.22;94956.31;5051255;28;20041;-76
2022/04/28 01:03:56;;;;;;;11.55;4.03;;;;;;;15.85;55.38;94957.09;5049503;28;20041;-75
2022/04/28 01:06:22;;;;;;;15.27;4.70;;;;;;;15.79;56.11;94960.75;5049434;28;20037;-76
2022/04/28 01:08:47;;;;;;;13.13;5.47;;;;;;;15.74;56.55;94958.09;5049579;28;20420;-75
2022/04/28 01:11:13;;;;;;;21.77;7.80;;;;;;;15.68;57.37;94953.91;5032551;28;20028;-76
2022/04/28 01:13:38;;;;;;;20.38;6.88;;;;;;;15.60;57.72;94957.81;5033021;28;20032;-75
2022/04/28 01:16:04;;;;;;;17.13;6.00;;;;;;;15.58;58.20;94958.03;5050929;28;20036;-75
2022/04/28 01:18:29;;;;;;;11.65;6.15;;;;;;;15.54;58.19;94959.63;5016477;28;20108;-75
2022/04/28 01:20:55;;;;;;;21.25;6.63;;;;;;;15.50;58.29;94961.19;5033007;28;20068;-75
2022/04/28 01:23:20;;;;;;;16.23;6.47;;;;;;;15.46;58.27;94965.38;5031725;28;20040;-75
2022/04/28 01:25:46;;;;;;;11.77;6.20;;;;;;;15.40;58.61;94963.78;5032684;28;20040;-75
2022/04/28 01:28:11;;;;;;;16.65;6.85;;;;;;;15.35;58.76;94966.38;5050689;28;20048;-75
2022/04/28 01:30:37;;;;;;;20.42;8.27;;;;;;;15.34;59.00;94958.78;5032611;28;20041;-75
2022/04/28 01:33:03;;;;;;;13.20;7.00;;;;;;;15.26;59.29;94970.53;5050491;28;20576;-76
2022/04/28 01:35:29;;;;;;;18.08;6.85;;;;;;;15.27;59.41;94969.47;5032283;28;20087;-77
2022/04/28 01:37:54;;;;;;;11.88;6.40;;;;;;;15.28;59.38;94973.69;5016060;28;20044;-75
2022/04/28 01:40:20;;;;;;;18.35;6.85;;;;;;;15.31;59.45;94978.44;5050326;28;20522;-76
2022/04/28 01:42:47;;;;;;;17.35;8.23;;;;;;;15.29;59.49;94980.50;5015966;28;20037;-74
2022/04/28 01:45:13;;;;;;;12.18;5.13;;;;;;;15.29;59.46;94980.50;5014400;28;20040;-74
2022/04/28 01:47:41;;;;;;;14.25;5.43;;;;;;;15.31;59.70;94973.19;5050131;28;20037;-75
2022/04/28 01:50:09;;;;;;;13.57;6.30;;;;;;;15.31;59.45;94973.97;5032694;28;20051;-76
2022/04/28 01:55:18;;;;;;;24.83;7.45;;;;;;;15.30;59.40;94976.84;5020713;28;20056;-76
2022/04/28 01:57:43;;;;;;;17.67;6.88;;;;;;;15.24;60.13;94983.09;5049018;28;20036;-74
2022/04/28 02:00:09;;;;;;;18.42;6.88;;;;;;;15.23;60.07;94987.56;5050056;28;20404;-74
2022/04/28 02:02:35;;;;;;;15.35;6.00;;;;;;;15.24;60.17;94990.97;5032322;28;20082;-74
2022/04/28 02:05:03;;;;;;;17.02;6.20;;;;;;;15.28;60.06;94989.41;5015405;28;20029;-76
2022/04/28 02:07:28;;;;;;;15.38;5.28;;;;;;;15.25;60.30;94992.53;5032336;28;20051;-77
2022/04/28 02:09:54;;;;;;;18.75;5.13;;;;;;;15.22;60.40;94991.22;5046648;28;20037;-76
2022/04/28 02:12:19;;;;;;;16.92;5.40;;;;;;;15.24;60.35;94989.13;5048577;28;20031;-76
2022/04/28 02:14:46;;;;;;;15.13;5.13;;;;;;;15.22;60.29;94990.44;5015089;28;20493;-76
2022/04/28 02:17:12;;;;;;;16.33;6.68;;;;;;;15.22;60.57;94990.44;5050118;28;20037;-76
2022/04/28 02:19:37;;;;;;;16.45;6.18;;;;;;;15.25;60.34;94989.91;5048496;28;20037;-76
2022/04/28 02:22:03;;;;;;;11.90;5.57;;;;;;;15.22;60.93;94999.09;5031699;28;20044;-76
2022/04/28 02:24:28;;;;;;;19.63;7.32;;;;;;;15.24;60.67;94996.19;5015380;28;20040;-76
2022/04/28 02:26:54;;;;;;;21.33;7.97;;;;;;;15.25;60.58;95005.63;5048641;28;20037;-76
2022/04/28 02:29:19;;;;;;;17.83;6.10;;;;;;;15.22;60.88;95000.91;5031697;28;20500;-76
2022/04/28 02:31:45;;;;;;;17.52;6.32;;;;;;;15.25;60.77;95003.00;5031767;28;20025;-76
2022/04/28 02:34:11;;;;;;;9.40;5.47;;;;;;;15.23;61.13;94994.63;5049642;28;20515;-76
2022/04/28 02:36:36;;;;;;;10.32;5.07;;;;;;;15.21;60.99;94992.28;5049620;28;20048;-76
2022/04/28 02:39:02;;;;;;;13.55;5.45;;;;;;;15.25;60.92;95000.41;5049506;28;20095;-76
2022/04/28 02:41:28;;;;;;;13.65;6.95;;;;;;;15.23;60.82;95002.50;5048384;28;20033;-76
2022/04/28 02:43:53;;;;;;;11.63;5.45;;;;;;;15.24;60.97;95001.44;5049303;28;20052;-76
2022/04/28 02:46:18;;;;;;;13.40;4.85;;;;;;;15.20;61.04;95008.25;5049213;28;20037;-76
2022/04/28 02:48:44;;;;;;;17.40;5.28;;;;;;;15.22;61.00;95001.69;5049509;28;20033;-76
2022/04/28 02:51:10;;;;;;;7.22;5.10;;;;;;;15.19;61.14;95001.44;5014706;28;20496;-76
2022/04/28 02:53:35;;;;;;;14.32;4.90;;;;;;;15.19;61.43;95006.66;5031528;28;20040;-76
2022/04/28 02:56:01;;;;;;;8.82;4.40;;;;;;;15.18;61.33;95007.72;5049052;28;20091;-76
2022/04/28 02:58:26;;;;;;;10.13;4.30;;;;;;;15.14;61.36;95010.06;5031249;28;20037;-76
2022/04/28 03:00:52;;;;;;;15.07;5.45;;;;;;;15.09;61.78;95010.00;5049111;28;20045;-76
2022/04/28 03:03:17;;;;;;;11.40;4.70;;;;;;;15.08;61.63;95012.88;5031445;28;20037;-77
2022/04/28 03:11:11;;;;;;;12.18;6.45;;;;;;;15.08;61.71;95015.50;5049043;28;20278;-75
2022/04/28 03:13:37;;;;;;;5.60;4.35;;;;;;;15.07;61.66;95019.19;5048585;28;20489;-75
2022/04/28 03:16:02;;;;;;;6.97;4.68;;;;;;;15.06;61.71;95017.59;5030757;28;20155;-76
2022/04/28 03:18:28;;;;;;;7.15;4.53;;;;;;;15.06;61.51;95020.22;5031053;28;20545;-76
2022/04/28 03:20:54;;;;;;;7.60;4.35;;;;;;;15.02;61.68;95033.81;5048604;28;20037;-76
2022/04/28 03:23:20;;;;;;;6.32;4.13;;;;;;;15.05;61.91;95039.59;5033983;28;20032;-76
2022/04/28 03:25:46;;;;;;;12.45;5.90;;;;;;;14.99;61.81;95031.72;5017959;28;20036;-76
2022/04/28 03:28:11;;;;;;;7.10;5.00;;;;;;;14.93;62.00;95035.34;5034645;28;20036;-76
2022/04/28 03:30:36;;;;;;;19.67;5.93;;;;;;;14.91;62.59;95037.41;5034562;28;20040;-76
2022/04/28 03:33:02;;;;;;;5.72;5.22;;;;;;;14.89;62.72;95044.75;5051029;28;20040;-76
2022/04/28 03:35:27;;;;;;;10.82;6.32;;;;;;;14.87;62.81;95054.69;5034107;28;20037;-76
2022/04/28 03:37:53;;;;;;;6.72;5.82;;;;;;;14.84;63.24;95057.03;5034350;28;20048;-76
2022/04/28 03:40:18;;;;;;;8.00;6.55;;;;;;;14.85;63.27;95062.00;5050973;28;20545;-76
2022/04/28 03:42:44;;;;;;;11.43;6.47;;;;;;;14.88;62.88;95064.13;5034601;28;20067;-76
2022/04/28 03:45:10;;;;;;;12.18;7.97;;;;;;;14.89;63.49;95070.91;5034224;28;20036;-76
2022/04/28 03:47:36;;;;;;;17.52;8.55;;;;;;;14.85;63.21;95071.69;5017771;28;20056;-76
2022/04/28 03:50:04;;;;;;;11.18;7.35;;;;;;;14.79;63.59;95065.59;5017362;28;20069;-76
2022/04/28 03:52:30;;;;;;;9.75;7.15;;;;;;;14.77;63.82;95067.69;5018172;28;20115;-76
2022/04/28 03:54:55;;;;;;;13.98;7.97;;;;;;;14.80;63.86;95067.19;5009023;28;20568;-75
2022/04/28 03:57:21;;;;;;;14.10;8.45;;;;;;;14.81;63.39;95079.25;5017690;28;20032;-76
2022/04/28 03:59:46;;;;;;;12.45;8.32;;;;;;;14.85;63.53;95075.09;5017837;28;20041;-77
2022/04/28 04:02:33;;;;;;;16.52;7.45;;;;;;;14.85;63.59;95080.31;5017792;28;20087;-76
2022/04/28 04:04:58;;;;;;;12.25;7.57;;;;;;;14.93;63.36;95077.22;5036159;28;20037;-76
2022/04/28 04:07:31;;;;;;;9.43;7.22;;;;;;;14.92;62.99;95080.88;5052568;28;20451;-76
2022/04/28 04:09:57;;;;;;;;;;;;;;;14.90;63.40;95087.41;5050584;28;20037;-76
2022/04/28 04:12:23;;;;;;;7.43;6.72;;;;;;;14.89;63.23;95088.47;5016470;28;19920;-76
2022/04/28 04:14:48;;;;;;;7.53;6.82;;;;;;;14.86;63.08;95084.53;5016667;28;20048;-76
2022/04/28 04:17:14;;;;;;;13.48;6.32;;;;;;;14.89;63.22;95088.47;5051469;28;20042;-76
2022/04/28 04:19:39;;;;;;;13.13;6.65;;;;;;;14.92;62.99;95090.56;5050978;28;20037;-75
2022/04/28 04:22:05;;;;;;;11.00;6.45;;;;;;;14.88;62.89;95090.28;5051490;28;20040;-76
2022/04/28 04:24:30;;;;;;;7.00;6.30;;;;;;;14.88;62.79;95090.28;5053251;28;20036;-76
2022/04/28 04:26:57;;;;;;;8.70;6.22;;;;;;;14.84;62.83;95094.47;5051310;28;20087;-75
2022/04/28 04:29:23;;;;;;;6.13;5.53;;;;;;;14.80;62.71;95093.38;5042352;28;20493;-75
2022/04/28 04:34:32;;;;;;;14.20;6.03;;;;;;;14.75;62.84;95097.78;5034969;28;20052;-77
2022/04/28 04:36:58;;;;;;;8.82;6.20;;;;;;;14.79;62.98;95091.00;5050965;28;20051;-77
2022/04/28 04:39:23;;;;;;;8.80;4.63;;;;;;;14.87;62.76;95104.44;5015748;28;20037;-76
2022/04/28 04:41:48;;;;;;;11.07;4.47;;;;;;;14.85;62.32;95103.09;5050880;28;20036;-76
2022/04/28 04:44:14;;;;;;;7.88;4.43;;;;;;;14.81;62.13;95102.03;5049351;28;20033;-75
2022/04/28 04:46:43;;;;;;;11.90;4.60;;;;;;;14.77;62.04;95104.34;5051076;28;20036;-75
2022/04/28 04:49:09;;;;;;;3.78;3.38;;;;;;;14.78;61.70;95111.16;5047707;28;20452;-75
2022/04/28 04:51:34;;;;;;;24.65;5.30;;;;;;;14.80;61.46;95103.03;5033362;28;20037;-75
2022/04/28 04:53:59;;;;;;;22.75;8.05;;;;;;;14.79;60.95;95115.34;5049361;28;20025;-74
2022/04/28 04:56:25;;;;;;;10.73;7.75;;;;;;;14.81;60.60;95121.16;5032979;28;20062;-74
2022/04/28 04:58:50;;;;;;;4.82;4.22;;;;;;;14.77;60.40;95125.28;5032815;28;20111;-75
2022/04/28 05:01:18;;;;;;;11.32;3.20;;;;;;;14.76;60.42;95128.94;5051562;28;20036;-75
2022/04/28 05:03:43;;;;;;;6.20;2.17;;;;;;;14.77;60.20;95125.28;5033185;28;20040;-76
2022/04/28 05:06:09;;;;;;;4.55;2.30;;;;;;;14.79;60.25;95120.59;5049195;28;20123;-75
2022/04/28 05:08:34;;;;;;;5.53;3.40;;;;;;;14.75;60.20;95129.97;5030882;28;20025;-76
2022/04/28 05:10:59;;;;;;;3.75;3.10;;;;;;;14.72;59.60;95125.25;5030780;28;20439;-75
2022/04/28 05:13:25;;;;;;;3.63;2.63;;;;;;;14.65;59.71;95132.53;5045731;28;20508;-75
2022/04/28 05:15:50;;;;;;;4.55;2.80;;;;;;;14.57;60.46;95138.19;5031390;28;20096;-75
2022/04/28 05:18:16;;;;;;;4.55;2.85;;;;;;;14.56;60.23;95144.47;5049164;28;20037;-75
2022/04/28 05:20:41;;;;;;;6.50;2.25;;;;;;;14.50;60.69;95140.25;5049167;28;20037;-75
2022/04/28 05:23:06;;;;;;;6.82;2.58;;;;;;;14.38;60.03;95141.16;5032857;28;20033;-75
2022/04/28 05:25:32;;;;;;;7.10;2.90;;;;;;;14.28;60.51;95138.41;5015936;28;20444;-75
2022/04/28 05:27:58;;;;;;;5.57;3.00;;;;;;;14.31;60.39;95142.38;5014994;28;20033;-75
2022/04/28 05:30:23;;;;;;;6.32;2.33;;;;;;;14.34;60.42;95145.31;5050586;28;20472;-75
2022/04/28 05:32:49;;;;;;;4.07;2.65;;;;;;;14.31;60.43;95152.81;5049111;28;20032;-75
2022/04/28 05:35:14;;;;;;;10.68;2.38;;;;;;;14.25;60.43;95159.84;5049966;28;20025;-75
2022/04/28 05:37:40;;;;;;;7.80;2.30;;;;;;;14.19;60.90;95165.28;5032211;28;20032;-75
2022/04/28 05:40:06;;;;;;;10.70;2.25;;;;;;;14.12;60.74;95166.25;5032398;28;20037;-75
2022/04/28 05:47:59;;;;;;;27.77;2.42;;;;;;;13.93;61.72;95169.41;5021628;28;20082;-79
2022/04/28 05:50:26;;;;;;;6.85;3.10;;;;;;;13.86;62.79;95184.50;5021532;28;20124;-76
2022/04/28 05:52:51;;;;;;;8.40;2.45;;;;;;;13.85;63.55;95180.31;5032536;28;20526;-75
2022/04/28 05:55:17;;;;;;;10.85;2.80;;;;;;;13.86;63.22;95177.44;5049815;28;20650;-76
2022/04/28 05:57:42;;;;;;;10.10;2.53;;;;;;;13.80;64.10;95184.41;5049325;28;20524;-76
2022/04/28 06:00:08;;;;;;;2.20;1.98;;;;;;;13.77;63.74;95187.53;4999319;28;20067;-76
2022/04/28 06:02:34;;;;;;;4.03;2.90;;;;;;;13.72;64.38;95192.69;5049747;28;20060;-76
2022/04/28 06:05:00;;;;;;;7.95;4.72;;;;;;;13.66;64.47;95191.03;5048592;28;20025;-76
2022/04/28 06:07:26;;;;;;;15.40;8.57;;;;;;;13.65;64.46;95201.72;5032397;28;20036;-76
2022/04/28 06:09:51;;;;;;;17.25;6.63;;;;;;;13.60;64.03;95197.22;5048331;28;20037;-75
2022/04/28 06:12:17;;;;;;;17.35;5.85;;;;;;;13.58;64.99;95196.69;5032030;28;20033;-76
2022/04/28 06:14:43;;;;;;;11.82;4.85;;;;;;;13.57;64.76;95196.94;5006584;28;20040;-75
2022/04/28 06:17:08;;;;;;;14.80;5.40;;;;;;;13.54;64.71;95195.59;5015402;28;20076;-76
2022/04/28 06:19:34;;;;;;;15.98;5.78;;;;;;;13.57;65.56;95192.50;5031393;28;20106;-75
2022/04/28 06:21:59;;;;;;;6.60;2.95;;;;;;;13.58;64.56;95201.13;5031551;28;20036;-75
2022/04/28 06:24:25;;;;;;;9.18;5.78;;;;;;;13.51;64.80;95198.69;5031581;28;20098;-75
2022/04/28 06:26:51;;;;;;;8.07;4.25;;;;;;;13.51;64.98;95201.31;4999043;28;20025;-75
2022/04/28 06:29:16;;;;;;;8.27;4.45;;;;;;;13.48;64.59;95196.53;5015377;28;20037;-76
2022/04/28 06:31:42;;;;;;;8.38;4.80;;;;;;;13.49;65.17;95205.94;5032061;28;20108;-75
2022/04/28 06:34:07;;;;;;;10.30;3.38;;;;;;;13.53;64.84;95196.63;5031172;28;20029;-75
2022/04/28 06:36:34;;;;;;;30.08;3.78;;;;;;;13.50;64.65;95204.91;5031549;28;20515;-75
2022/04/28 06:39:02;;;;;;;8.88;4.93;;;;;;;13.47;65.02;95210.63;5046869;28;20111;-76
2022/04/28 06:41:28;;;;;;;8.77;4.53;;;;;;;13.48;65.10;95214.81;5049320;28;20036;-76
2022/04/28 06:43:55;;;;;;;10.75;6.20;;;;;;;13.55;65.23;95212.06;5014456;28;20591;-76
2022/04/28 06:46:21;;;;;;;6.60;4.88;;;;;;;13.60;65.51;95214.72;5014844;28;20033;-76
2022/04/28 06:48:47;;;;;;;12.70;5.40;;;;;;;13.57;65.07;95213.38;5031452;28;20051;-76
2022/04/28 06:51:13;;;;;;;18.80;5.20;;;;;;;13.67;64.90;95215.38;5048657;28;20036;-76
2022/04/28 06:53:39;;;;;;;8.63;4.07;;;;;;;13.62;64.94;95212.66;5030981;28;20037;-76
2022/04/28 06:56:06;;;;;;;4.55;3.20;;;;;;;13.63;64.30;95217.66;5029534;28;20025;-75
2022/04/28 06:58:31;;;;;;;2.67;2.47;;;;;;;13.61;64.55;95221.53;5031345;28;20166;-74
2022/04/28 07:00:57;;;;;;;9.32;6.13;;;;;;;13.61;64.23;95219.72;5014931;28;20041;-76
2022/04/28 07:03:23;;;;;;;9.23;5.43;;;;;;;13.60;64.64;95214.72;5030957;28;20025;-75
2022/04/28 07:05:48;;;;;;;9.77;5.38;;;;;;;13.71;63.86;95222.47;5031138;28;20033;-76
2022/04/28 07:08:14;;;;;;;12.13;7.78;;;;;;;13.76;63.76;95225.16;5030305;28;20025;-76
2022/04/28 07:10:40;;;;;;;10.38;4.55;;;;;;;13.78;63.79;95220.47;4999525;28;20091;-76
2022/04/28 07:13:06;;;;;;;5.90;3.60;;;;;;;13.84;63.88;95231.81;5014975;28;20032;-76
2022/04/28 07:15:35;;;;;;;11.52;3.42;;;;;;;13.93;63.54;95226.94;5049312;28;20037;-76
2022/04/28 07:18:01;;;;;;;4.15;3.38;;;;;;;13.95;63.46;95233.50;4999225;28;20041;-76
2022/04/28 07:20:27;;;;;;;4.78;3.42;;;;;;;14.02;63.03;95230.72;5045265;28;20024;-76
2022/04/28 07:22:53;;;;;;;6.47;3.03;;;;;;;14.06;61.98;95237.03;5014665;28;20420;-76
2022/04/28 07:25:18;;;;;;;4.85;4.32;;;;;;;14.04;62.05;95232.06;4994916;28;20835;-76
2022/04/28 07:27:43;;;;;;;9.27;5.55;;;;;;;14.06;62.11;95231.81;5022654;28;20025;-76
2022/04/28 07:30:10;;;;;;;10.25;3.70;;;;;;;14.03;62.23;95232.31;5030731;28;20612;-76
2022/04/28 07:32:35;;;;;;;3.53;3.30;;;;;;;14.02;62.52;95233.34;5007382;28;20037;-76
2022/04/28 07:35:01;;;;;;;5.65;2.75;;;;;;;14.02;62.42;95241.97;5031162;28;20033;-76
2022/04/28 07:37:26;;;;;;;3.85;2.17;;;;;;;14.08;62.39;95240.19;4998358;28;20029;-76
2022/04/28 07:39:52;;;;;;;10.73;2.35;;;;;;;14.16;61.40;95239.78;5030119;28;20497;-76
2022/04/28 07:42:17;;;;;;;3.75;2.60;;;;;;;14.27;61.54;95236.25;5013054;28;20420;-76
2022/04/28 07:44:43;;;;;;;1.90;1.80;;;;;;;14.36;61.16;95234.78;5047421;28;20040;-76
2022/04/28 07:47:08;;;;;;;3.40;2.13;;;;;;;14.47;60.81;95230.47;5013872;28;20098;-77
2022/04/28 07:49:36;;;;;;;9.07;2.28;;;;;;;14.53;60.44;95234.75;5029115;28;20049;-77
2022/04/28 07:52:02;;;;;;;9.55;2.50;;;;;;;14.59;60.21;95238.97;5029450;28;20057;-77
2022/04/28 07:54:27;;;;;;;10.90;2.90;;;;;;;14.65;59.88;95229.38;5005273;28;20036;-77
2022/04/28 07:56:53;;;;;;;7.93;2.47;;;;;;;14.64;59.66;95240.84;5030385;28;20033;-77
2022/04/28 07:59:18;;;;;;;6.78;2.30;;;;;;;14.62;59.54;95242.94;5030414;28;20029;-77
2022/04/28 08:01:44;;;;;;;8.10;2.50;;;;;;;14.67;59.91;95246.41;5030370;28;20037;-76
2022/04/28 08:04:10;;;;;;;10.10;4.20;;;;;;;14.73;59.71;95255.09;5037264;28;20090;-76
2022/04/28 08:06:35;;;;;;;13.93;3.63;;;;;;;14.73;58.88;95251.69;5013942;28;20052;-77
2022/04/28 08:09:01;;;;;;;15.45;2.50;;;;;;;14.59;59.74;95244.22;5049758;28;20466;-77
2022/04/28 08:11:26;;;;;;;6.18;1.75;;;;;;;14.60;60.06;95255.47;5017121;28;20507;-77
2022/04/28 08:13:52;;;;;;;1.55;1.45;;;;;;;14.63;59.76;95255.78;5017298;28;20434;-77
2022/04/28 08:16:17;;;;;;;5.45;1.50;;;;;;;14.63;59.45;95254.97;5009168;28;20029;-76
2022/04/28 08:18:43;;;;;;;12.75;2.85;;;;;;;14.58;59.61;95258.34;5033272;28;20526;-77
2022/04/28 08:21:08;;;;;;;10.02;1.40;;;;;;;14.64;59.72;95253.94;5024390;28;20146;-77
2022/04/28 08:23:37;;;;;;;5.05;2.20;;;;;;;14.67;59.80;95261.31;5033702;28;20841;-77
2022/04/28 08:26:03;;;;;;;5.85;3.40;;;;;;;14.71;60.02;95262.41;5031678;28;20033;-77
2022/04/28 08:28:29;;;;;;;5.00;3.42;;;;;;;14.79;59.69;95253.31;5019119;28;20037;-77
2022/04/28 08:30:54;;;;;;;9.13;2.75;;;;;;;14.88;59.14;95263.09;5025103;28;20052;-77
2022/04/28 08:33:20;;;;;;;7.28;4.15;;;;;;;14.95;59.08;95258.44;5051049;28;20029;-76
2022/04/28 08:35:46;;;;;;;8.75;4.20;;;;;;;14.94;58.92;95256.06;5050785;28;20021;-77
2022/04/28 08:38:11;;;;;;;12.32;3.92;;;;;;;14.91;58.85;95259.97;5016758;28;20078;-76
2022/04/28 08:40:36;;;;;;;5.10;2.42;;;;;;;14.91;59.18;95262.59;5033337;28;20033;-76
2022/04/28 08:43:03;;;;;;;18.70;2.80;;;;;;;14.95;59.24;95261.06;5051101;28;20103;-77
2022/04/28 08:45:29;;;;;;;7.75;3.22;;;;;;;15.05;59.12;95264.81;5033091;28;20047;-77
2022/04/28 08:47:56;;;;;;;20.95;4.28;;;;;;;15.09;58.91;95258.06;5016112;28;20033;-77
2022/04/28 08:50:22;;;;;;;11.40;4.90;;;;;;;15.16;58.14;95261.28;5041199;28;20068;-77
2022/04/28 08:52:48;;;;;;;12.05;4.28;;;;;;;15.21;58.79;95263.94;5049647;28;20493;-76
2022/04/28 08:55:16;;;;;;;5.07;3.28;;;;;;;15.22;58.35;95268.13;5050238;28;20033;-77
2022/04/28 08:57:42;;;;;;;9.73;4.88;;;;;;;15.36;57.99;95260.63;5032829;28;20033;-76
2022/04/28 09:00:07;;;;;;;11.60;4.30;;;;;;;15.52;58.17;95270.19;5014585;28;20029;-77
2022/04/28 09:02:33;;;;;;;9.85;2.20;;;;;;;15.63;57.19;95263.25;5048448;28;20043;-77
2022/04/28 09:05:03;;;;;;;3.75;1.88;;;;;;;15.65;56.57;95261.16;5016046;28;20037;-77
2022/04/28 09:07:36;;;;;;;5.00;2.58;;;;;;;15.68;57.03;95260.66;5016320;28;20171;-77
2022/04/28 09:10:26;;;;;;;17.02;4.35;;;;;;;15.77;56.90;95266.97;5014197;28;20029;-77
2022/04/28 09:15:50;;;;;;;20.17;3.00;;;;;;;15.82;55.85;95267.03;5050678;28;20086;-77
2022/04/28 09:18:16;;;;;;;8.35;3.00;;;;;;;15.82;55.39;95269.66;5031712;28;20021;-77
2022/04/28 09:20:43;;;;;;;9.63;3.67;;;;;;;15.86;55.70;95268.09;5032340;28;20036;-77
2022/04/28 09:23:10;;;;;;;3.53;2.92;;;;;;;15.89;55.71;95272.84;5016173;28;20037;-77
2022/04/28 09:25:35;;;;;;;9.05;3.58;;;;;;;15.92;55.74;95269.69;5050262;28;20029;-77
2022/04/28 09:28:02;;;;;;;8.00;2.55;;;;;;;15.98;55.13;95270.53;5049790;28;20074;-78
2022/04/28 09:30:43;;;;;;;11.90;4.90;;;;;;;15.93;55.35;95273.91;5032575;28;20028;-77
2022/04/28 09:33:13;;;;;;;14.57;3.78;;;;;;;15.97;54.90;95277.63;5011119;28;20420;-78
2022/04/28 09:35:58;;;;;;;14.68;4.68;;;;;;;16.05;54.51;95271.88;5031695;28;20480;-77
2022/04/28 09:38:24;;;;;;;8.07;3.75;;;;;;;16.05;54.28;95271.88;5050428;28;20469;-78
2022/04/28 09:43:34;;;;;;;8.80;2.50;;;;;;;16.15;53.94;95266.69;5052008;28;20044;-77
2022/04/28 09:46:00;;;;;;;6.05;2.92;;;;;;;16.21;54.32;95270.13;5032400;28;20898;-76
2022/04/28 09:48:32;;;;;;;12.27;3.50;;;;;;;16.33;53.82;95270.72;5043260;28;20067;-79
2022/04/28 09:51:04;;;;;;;6.45;3.10;;;;;;;16.48;53.54;95268.16;5036436;28;20031;-78
2022/04/28 09:53:31;;;;;;;6.18;3.10;;;;;;;16.59;52.96;95263.69;5033787;28;20044;-77
2022/04/28 09:55:56;;;;;;;8.32;2.70;;;;;;;16.63;52.54;95262.16;5050536;28;20036;-76
2022/04/28 09:58:22;;;;;;;5.30;2.67;;;;;;;16.61;52.14;95258.22;4998887;28;20036;-78
2022/04/28 10:00:47;;;;;;;9.75;2.83;;;;;;;16.64;51.88;95257.69;5000543;28;20698;-78
2022/04/28 10:03:13;;;;;;;11.80;3.10;;;;;;;16.58;52.33;95264.75;5048693;28;20044;-76
2022/04/28 10:05:38;;;;;;;5.97;2.63;;;;;;;16.59;52.33;95263.69;5031539;28;20091;-76
2022/04/28 10:08:04;;;;;;;7.35;2.83;;;;;;;16.59;52.47;95261.06;5049676;28;20032;-76
2022/04/28 10:10:29;;;;;;;13.18;6.25;;;;;;;16.58;52.61;95259.50;5031452;28;20115;-76
2022/04/28 10:12:55;;;;;;;13.38;6.63;;;;;;;16.64;52.67;95261.09;5031609;28;20468;-76
2022/04/28 10:15:21;;;;;;;6.95;3.92;;;;;;;16.74;52.05;95263.78;5049275;28;20465;-76
2022/04/28 10:17:54;;;;;;;6.90;2.47;;;;;;;16.83;51.89;95261.44;5032099;28;20022;-76
2022/04/28 10:20:29;;;;;;;;;;;;;;;16.90;51.43;95258.56;5032530;28;20473;-75
2022/04/28 10:22:55;;;;;;;4.00;2.60;;;;;;;16.86;51.73;95255.66;5032180;28;20007;-76
2022/04/28 10:33:45;;;;;;;14.20;6.40;;;;;;;17.33;50.52;95250.19;5034506;28;20882;-76
2022/04/28 10:36:17;;;;;;;4.00;2.95;;;;;;;17.40;49.71;95250.72;5015325;28;20036;-76
2022/04/28 10:39:08;;;;;;;4.93;2.67;;;;;;;17.45;50.29;95251.78;5022234;28;20033;-76
2022/04/28 10:41:33;;;;;;;6.55;3.05;;;;;;;17.51;49.95;95255.97;5047718;28;20068;-76
2022/04/28 10:44:00;;;;;;;13.75;4.60;;;;;;;17.56;50.29;95248.06;5031516;28;20560;-76
2022/04/28 10:46:25;;;;;;;18.90;6.40;;;;;;;17.62;49.74;95247.03;5031236;28;20040;-76
2022/04/28 10:48:55;;;;;;;5.40;4.40;;;;;;;17.66;49.58;95248.06;5049436;28;20041;-77
2022/04/28 10:51:22;;;;;;;8.57;4.40;;;;;;;17.72;49.29;95249.66;5031411;28;20495;-76
2022/04/28 10:54:01;;;;;;;8.95;4.18;;;;;;;17.89;48.75;95242.25;5014833;28;20112;-75
2022/04/28 10:56:42;;;;;;;4.90;3.55;;;;;;;18.03;48.20;95246.97;5039431;28;20033;-76
2022/04/28 10:59:32;;;;;;;6.68;3.92;;;;;;;18.04;48.01;95246.69;5030770;28;20029;-76
2022/04/28 11:02:18;;;;;;;20.20;3.42;;;;;;;18.11;47.64;95246.44;5048745;28;20051;-76
2022/04/28 11:04:48;;;;;;;14.60;4.10;;;;;;;18.22;47.96;95246.16;5030634;28;20064;-76
2022/04/28 11:07:23;;;;;;;17.25;5.38;;;;;;;18.33;47.92;95246.88;5038724;28;20033;-76
2022/04/28 11:09:55;;;;;;;9.60;5.20;;;;;;;18.47;47.19;95237.34;5031469;28;20412;-76
2022/04/28 11:12:21;;;;;;;16.60;6.35;;;;;;;18.57;47.20;95237.31;5031299;28;20025;-76
2022/04/28 11:15:06;;;;;;;8.48;4.70;;;;;;;18.73;46.14;95239.88;5013382;28;20036;-76
2022/04/28 11:17:36;;;;;;;9.95;3.30;;;;;;;18.74;46.08;95238.84;5031038;28;20120;-75
2022/04/28 11:20:09;;;;;;;7.70;3.53;;;;;;;18.71;46.31;95242.81;5015469;28;20052;-77
2022/04/28 11:22:35;;;;;;;11.25;4.07;;;;;;;18.70;46.54;95243.03;5032390;28;20035;-77
2022/04/28 11:25:12;;;;;;;4.70;3.92;;;;;;;18.65;46.59;95237.81;5030991;28;20045;-76
2022/04/28 11:27:38;;;;;;;7.82;3.78;;;;;;;18.67;46.69;95240.97;5047457;28;20041;-77
2022/04/28 11:30:04;;;;;;;9.95;4.35;;;;;;;18.71;46.56;95234.91;5030530;28;20041;-77
2022/04/28 11:32:29;;;;;;;8.57;4.00;;;;;;;18.69;45.88;95233.56;5049044;28;20033;-75
2022/04/28 11:34:58;;;;;;;3.65;3.33;;;;;;;18.64;46.04;95238.88;5021715;28;20416;-79
2022/04/28 11:37:28;;;;;;;4.30;3.55;;;;;;;18.59;46.75;95240.44;5031331;28;20029;-77
2022/04/28 11:39:54;;;;;;;6.20;3.53;;;;;;;18.59;46.00;95234.41;5029972;28;20411;-78
2022/04/28 11:42:20;;;;;;;6.80;3.75;;;;;;;18.50;46.06;95242.06;4998955;28;20357;-77
2022/04/28 11:44:46;;;;;;;9.98;5.03;;;;;;;18.37;46.42;95237.38;5034104;28;20056;-77
2022/04/28 11:47:12;;;;;;;18.00;5.38;;;;;;;18.33;46.69;95235.56;5034341;28;20061;-77
2022/04/28 11:49:40;;;;;;;8.13;5.72;;;;;;;18.30;46.80;95234.25;5017724;28;20052;-77
2022/04/28 11:52:42;;;;;;;11.68;8.52;;;;;;;18.39;47.00;95229.22;5048721;28;20594;-78
2022/04/28 11:55:08;;;;;;;7.13;6.00;;;;;;;18.44;46.81;95230.00;5052388;28;20048;-77
2022/04/28 11:57:39;;;;;;;19.38;5.65;;;;;;;18.49;46.38;95234.44;5034419;28;20025;-78
2022/04/28 12:00:06;;;;;;;21.25;7.07;;;;;;;18.52;46.79;95226.00;5034723;28;20488;-77
2022/04/28 12:02:33;;;;;;;13.43;5.93;;;;;;;18.66;46.52;95223.56;5001510;28;20116;-78